Time;durP1;ratioP1;P1;durP2;ratioP2;P2;SDS_P1;SDS_P2;PMS_P1;PMS_P2;Temp;Humidity;BMP_temperature;BMP_pressure;BME280_temperature;BME280_humidity;BME280_pressure;Samples;Min_cycle;Max_cycle;Signal;HPM_P1;HPM_P2
2022/08/29 00:01:10;;;;;;;9.35;2.88;;;29.50;99.90;;;;;;5013796;28;20084;-50
2022/08/29 00:03:37;;;;;;;11.38;3.97;;;29.60;99.90;;;;;;5013317;28;20022;-49
2022/08/29 00:06:03;;;;;;;9.90;3.08;;;29.60;99.90;;;;;;5013260;28;20034;-50
2022/08/29 00:08:29;;;;;;;8.68;3.20;;;29.70;99.90;;;;;;5013226;28;20181;-49
2022/08/29 00:10:54;;;;;;;11.00;3.17;;;29.70;99.90;;;;;;5013084;28;20507;-49
2022/08/29 00:13:20;;;;;;;8.18;2.47;;;29.70;99.90;;;;;;5013112;28;20026;-50
2022/08/29 00:15:46;;;;;;;10.45;2.65;;;29.80;99.90;;;;;;5013032;28;20026;-49
2022/08/29 00:18:17;;;;;;;11.32;2.83;;;29.80;99.90;;;;;;5013193;28;20021;-49
2022/08/29 00:20:44;;;;;;;7.50;2.60;;;29.80;99.90;;;;;;5013093;28;20022;-49
2022/08/29 00:23:10;;;;;;;7.88;2.40;;;29.90;99.90;;;;;;5012286;28;20065;-49
2022/08/29 00:25:36;;;;;;;6.72;2.45;;;29.90;99.90;;;;;;5012810;28;20029;-49
2022/08/29 00:28:02;;;;;;;5.50;1.95;;;29.90;99.90;;;;;;5012800;28;20174;-50
2022/08/29 00:30:29;;;;;;;8.55;1.98;;;30.00;99.90;;;;;;5012599;28;20025;-49
2022/08/29 00:32:55;;;;;;;7.13;1.80;;;30.00;99.90;;;;;;5012842;28;20113;-49
2022/08/29 00:35:33;;;;;;;3.15;1.75;;;30.00;99.90;;;;;;5012529;28;20471;-49
2022/08/29 00:37:59;;;;;;;6.65;2.50;;;30.00;99.90;;;;;;5012620;28;20053;-49
2022/08/29 00:40:33;;;;;;;8.80;2.13;;;30.00;99.90;;;;;;5012562;28;20026;-49
2022/08/29 00:43:00;;;;;;;5.30;1.67;;;30.10;99.90;;;;;;5012374;28;20046;-49
2022/08/29 00:45:26;;;;;;;8.65;2.33;;;30.10;99.90;;;;;;5012474;28;20470;-49
2022/08/29 00:47:59;;;;;;;5.85;1.80;;;30.10;99.90;;;;;;5012441;28;20465;-50
2022/08/29 00:50:35;;;;;;;9.52;2.03;;;30.10;99.90;;;;;;5012323;28;20135;-49
2022/08/29 00:53:05;;;;;;;6.25;2.85;;;30.10;99.90;;;;;;5012326;28;20247;-49
2022/08/29 00:55:34;;;;;;;7.57;2.20;;;30.10;99.90;;;;;;5012155;28;20034;-49
2022/08/29 00:58:13;;;;;;;6.78;1.98;;;30.10;99.90;;;;;;5012308;28;20018;-50
2022/08/29 01:00:39;;;;;;;6.03;2.00;;;30.10;99.90;;;;;;5012426;28;20144;-50
2022/08/29 01:03:06;;;;;;;6.05;1.73;;;30.10;99.90;;;;;;5012073;28;20106;-49
2022/08/29 01:05:32;;;;;;;;;;;30.10;99.90;;;;;;5012764;28;20447;-50
2022/08/29 01:07:58;;;;;;;5.25;1.70;;;30.10;99.90;;;;;;5012409;28;19913;-50
2022/08/29 01:13:10;;;;;;;4.68;1.77;;;30.10;99.90;;;;;;5012133;28;20604;-50
2022/08/29 01:15:39;;;;;;;4.00;1.45;;;30.20;99.90;;;;;;5011934;28;20386;-50
2022/08/29 01:18:06;;;;;;;3.83;1.70;;;30.10;99.90;;;;;;5012056;28;20013;-50
2022/08/29 01:20:39;;;;;;;;;;;30.10;99.90;;;;;;5012398;28;20358;-49
2022/08/29 01:23:22;;;;;;;6.20;1.70;;;30.20;99.90;;;;;;5011913;28;20381;-49
2022/08/29 01:25:50;;;;;;;5.65;2.00;;;30.20;99.90;;;;;;5011977;28;20029;-50
2022/08/29 01:28:31;;;;;;;5.13;1.58;;;30.20;99.90;;;;;;5011902;28;20037;-49
2022/08/29 01:31:16;;;;;;;8.73;2.33;;;30.20;99.90;;;;;;5011812;28;20076;-49
2022/08/29 01:33:46;;;;;;;5.15;1.67;;;30.20;99.90;;;;;;5011757;28;20026;-49
2022/08/29 01:36:18;;;;;;;11.23;2.30;;;30.20;99.90;;;;;;5010924;28;20038;-49
2022/08/29 01:38:44;;;;;;;3.05;1.80;;;30.20;99.90;;;;;;5011490;28;20030;-49
2022/08/29 01:41:11;;;;;;;3.67;1.80;;;30.20;99.90;;;;;;5011503;28;20121;-49
2022/08/29 01:43:44;;;;;;;9.38;2.45;;;30.20;99.90;;;;;;5011687;28;20038;-49
2022/08/29 01:46:13;;;;;;;6.75;1.90;;;30.20;99.90;;;;;;5011532;28;20424;-50
2022/08/29 01:48:42;;;;;;;11.43;2.90;;;30.20;99.90;;;;;;5011563;28;20029;-50
2022/08/29 01:51:09;;;;;;;7.38;1.95;;;30.20;99.90;;;;;;4993821;28;20022;-49
2022/08/29 01:53:35;;;;;;;9.20;2.17;;;30.10;99.90;;;;;;5011455;28;20382;-49
2022/08/29 01:56:13;;;;;;;5.90;1.92;;;30.00;99.90;;;;;;5011401;28;20101;-50
2022/08/29 01:58:39;;;;;;;8.48;2.53;;;29.90;99.90;;;;;;5011466;28;20022;-49
2022/08/29 02:01:07;;;;;;;6.55;2.08;;;29.90;99.90;;;;;;5011693;28;20054;-50
2022/08/29 02:03:33;;;;;;;4.50;2.00;;;29.80;99.90;;;;;;5011260;28;20034;-50
2022/08/29 02:06:01;;;;;;;9.40;1.85;;;29.80;99.90;;;;;;5011261;28;20026;-50
2022/08/29 02:08:27;;;;;;;;;;;29.80;99.90;;;;;;5011595;28;20030;-49
2022/08/29 02:10:52;;;;;;;9.52;2.28;;;29.70;99.90;;;;;;5011382;28;19909;-50
2022/08/29 02:13:18;;;;;;;5.10;1.88;;;29.80;99.90;;;;;;5011691;28;20076;-49
2022/08/29 02:15:44;;;;;;;5.53;2.30;;;29.80;99.90;;;;;;5011227;28;20429;-49
2022/08/29 02:18:10;;;;;;;8.90;1.70;;;29.80;99.90;;;;;;5011274;28;20030;-50
2022/08/29 02:20:36;;;;;;;4.90;1.80;;;29.90;99.90;;;;;;5011178;28;20470;-49
2022/08/29 02:23:02;;;;;;;2.83;1.55;;;29.90;99.90;;;;;;4993671;28;20034;-50
2022/08/29 02:25:43;;;;;;;7.68;1.95;;;29.90;99.90;;;;;;5011184;28;20105;-49
2022/08/29 02:28:10;;;;;;;5.90;1.77;;;29.90;99.90;;;;;;5011072;28;20030;-50
2022/08/29 02:30:38;;;;;;;4.35;1.80;;;30.00;99.90;;;;;;5011268;28;20036;-49
2022/08/29 02:33:05;;;;;;;7.65;1.92;;;30.00;99.90;;;;;;5011079;28;20076;-50
2022/08/29 02:35:32;;;;;;;4.80;1.92;;;30.00;99.90;;;;;;5011148;28;20045;-50
2022/08/29 02:37:58;;;;;;;7.63;1.83;;;30.00;99.90;;;;;;5011047;28;20479;-50
2022/08/29 02:40:26;;;;;;;5.22;2.03;;;30.10;99.90;;;;;;4993505;28;20267;-50
2022/08/29 02:42:52;;;;;;;8.55;2.20;;;30.10;99.90;;;;;;5011221;28;20398;-50
2022/08/29 02:45:19;;;;;;;5.20;1.92;;;30.00;99.90;;;;;;5011084;28;20048;-51
2022/08/29 02:47:45;;;;;;;2.80;1.35;;;30.10;99.90;;;;;;5013680;28;20029;-50
2022/08/29 02:50:11;;;;;;;3.55;1.45;;;30.10;99.90;;;;;;5014709;28;20390;-49
2022/08/29 02:52:41;;;;;;;5.57;1.80;;;30.10;99.90;;;;;;5014592;28;20018;-49
2022/08/29 02:55:10;;;;;;;5.43;1.50;;;30.10;99.90;;;;;;5014556;28;20482;-49
2022/08/29 02:57:36;;;;;;;3.63;1.40;;;30.10;99.90;;;;;;5014529;28;20494;-49
2022/08/29 03:00:08;;;;;;;4.38;1.75;;;30.20;99.90;;;;;;5014989;28;20119;-49
2022/08/29 03:02:34;;;;;;;8.52;2.05;;;30.20;99.90;;;;;;5014375;28;20053;-49
2022/08/29 03:05:00;;;;;;;4.32;1.30;;;30.10;99.90;;;;;;5014389;28;20053;-49
2022/08/29 03:07:26;;;;;;;4.75;1.70;;;30.20;99.90;;;;;;4996655;28;20061;-49
2022/08/29 03:09:51;;;;;;;4.78;1.92;;;30.20;99.90;;;;;;5014497;28;20099;-49
2022/08/29 03:12:17;;;;;;;5.95;1.30;;;30.20;99.90;;;;;;5014235;28;20171;-49
2022/08/29 03:14:43;;;;;;;6.72;2.10;;;30.20;99.90;;;;;;5014144;28;20481;-49
2022/08/29 03:17:09;;;;;;;4.07;1.60;;;30.20;99.90;;;;;;5014163;28;20137;-49
2022/08/29 03:19:35;;;;;;;16.60;3.03;;;30.20;99.90;;;;;;5014034;28;20029;-49
2022/08/29 03:22:01;;;;;;;5.88;1.60;;;30.20;99.90;;;;;;5014133;28;20049;-49
2022/08/29 03:24:27;;;;;;;5.75;1.63;;;30.20;99.90;;;;;;5014236;28;20462;-49
2022/08/29 03:26:54;;;;;;;6.80;1.63;;;30.20;99.90;;;;;;5014064;28;20139;-49
2022/08/29 03:29:20;;;;;;;6.10;1.75;;;30.10;99.90;;;;;;5014218;28;20478;-49
2022/08/29 03:31:46;;;;;;;7.13;2.15;;;30.10;99.90;;;;;;5013874;28;20117;-49
2022/08/29 03:34:13;;;;;;;5.35;1.67;;;30.10;99.90;;;;;;5013713;28;20116;-49
2022/08/29 03:36:40;;;;;;;2.95;1.40;;;30.20;99.90;;;;;;5013978;28;20024;-49
2022/08/29 03:39:06;;;;;;;7.50;1.50;;;30.20;99.90;;;;;;5013746;28;20092;-49
2022/08/29 03:41:31;;;;;;;5.85;1.75;;;30.10;99.90;;;;;;5013827;28;20417;-50
2022/08/29 03:43:59;;;;;;;4.72;1.65;;;30.10;99.90;;;;;;5013997;28;20382;-50
2022/08/29 03:46:25;;;;;;;5.15;1.70;;;30.20;99.90;;;;;;5013746;28;20034;-49
2022/08/29 03:48:51;;;;;;;4.35;1.30;;;30.10;99.90;;;;;;5013623;28;20488;-49
2022/08/29 03:51:18;;;;;;;3.92;1.75;;;30.10;99.90;;;;;;5013491;28;20105;-50
2022/08/29 03:53:44;;;;;;;5.53;1.63;;;30.10;99.90;;;;;;5013567;28;20034;-50
2022/08/29 03:56:10;;;;;;;4.40;1.67;;;30.10;99.90;;;;;;5013520;28;20029;-50
2022/08/29 03:58:36;;;;;;;5.50;1.70;;;30.20;99.90;;;;;;5012464;28;20029;-54
2022/08/29 04:01:04;;;;;;;3.78;1.70;;;30.20;99.90;;;;;;5013737;28;20042;-50
2022/08/29 04:03:29;;;;;;;4.53;1.60;;;30.20;99.90;;;;;;5013204;28;20041;-50
2022/08/29 04:05:55;;;;;;;4.18;1.80;;;30.20;99.90;;;;;;5013235;28;20034;-50
2022/08/29 04:08:21;;;;;;;4.75;1.80;;;30.10;99.90;;;;;;5013178;28;20030;-50
2022/08/29 04:10:47;;;;;;;5.57;1.45;;;30.20;99.90;;;;;;5013203;28;20442;-51
2022/08/29 04:13:13;;;;;;;3.42;1.35;;;30.10;99.90;;;;;;5013268;28;20034;-51
2022/08/29 04:15:40;;;;;;;5.28;1.80;;;30.20;99.90;;;;;;5012921;28;20505;-50
2022/08/29 04:18:09;;;;;;;7.30;1.70;;;30.20;99.90;;;;;;4995490;28;20533;-49
2022/08/29 04:20:38;;;;;;;5.35;1.50;;;30.20;99.90;;;;;;5013039;28;20463;-50
2022/08/29 04:23:05;;;;;;;7.22;1.92;;;30.10;99.90;;;;;;5012783;28;20041;-50
2022/08/29 04:25:35;;;;;;;5.57;2.08;;;30.20;99.90;;;;;;5012915;28;20100;-50
2022/08/29 04:28:05;;;;;;;3.78;2.20;;;30.20;99.90;;;;;;5012906;28;20081;-49
2022/08/29 04:30:31;;;;;;;7.93;2.00;;;30.20;99.90;;;;;;5012911;28;20056;-49
2022/08/29 04:32:57;;;;;;;3.53;1.83;;;30.20;99.90;;;;;;5013050;28;20482;-49
2022/08/29 04:35:23;;;;;;;5.40;1.45;;;30.20;99.90;;;;;;5012782;28;20133;-50
2022/08/29 04:37:49;;;;;;;6.65;1.80;;;30.10;99.90;;;;;;5012606;28;20057;-50
2022/08/29 04:40:17;;;;;;;6.15;2.03;;;30.20;99.90;;;;;;5012585;28;20056;-49
2022/08/29 04:42:45;;;;;;;6.03;1.40;;;30.20;99.90;;;;;;5012638;28;20444;-49
2022/08/29 04:45:14;;;;;;;4.93;2.05;;;30.20;99.90;;;;;;5012490;28;20108;-49
2022/08/29 04:47:41;;;;;;;8.30;2.63;;;30.20;99.90;;;;;;5012399;28;20437;-49
2022/08/29 04:50:10;;;;;;;7.00;1.77;;;30.20;99.90;;;;;;5012596;28;20043;-50
2022/08/29 04:52:36;;;;;;;5.13;1.85;;;30.20;99.90;;;;;;5012504;28;20066;-49
2022/08/29 04:55:03;;;;;;;7.97;1.85;;;30.10;99.90;;;;;;5012476;28;20042;-50
2022/08/29 04:57:29;;;;;;;9.98;2.30;;;30.10;99.90;;;;;;5012450;28;20042;-51
2022/08/29 04:59:57;;;;;;;6.55;2.15;;;30.20;99.90;;;;;;5012210;28;20050;-50
2022/08/29 05:02:23;;;;;;;7.43;2.22;;;30.10;99.90;;;;;;5012158;28;20037;-49
2022/08/29 05:04:51;;;;;;;7.47;2.00;;;30.10;99.90;;;;;;5012085;28;20554;-50
2022/08/29 05:07:21;;;;;;;4.03;1.95;;;30.10;99.90;;;;;;5012244;28;20037;-49
2022/08/29 05:09:57;;;;;;;4.10;1.40;;;30.10;99.90;;;;;;5012097;28;20036;-49
2022/08/29 05:12:24;;;;;;;6.57;1.33;;;30.10;99.90;;;;;;5012204;28;20034;-49
2022/08/29 05:14:52;;;;;;;11.60;2.75;;;30.10;99.90;;;;;;5011956;28;20037;-49
2022/08/29 05:17:17;;;;;;;5.65;1.80;;;30.10;99.90;;;;;;5012013;28;20041;-50
2022/08/29 05:19:43;;;;;;;4.70;1.73;;;30.10;99.90;;;;;;5012129;28;20022;-49
2022/08/29 05:22:13;;;;;;;5.38;2.05;;;30.10;99.90;;;;;;5011820;28;20104;-50
2022/08/29 05:24:39;;;;;;;10.20;1.58;;;30.10;99.90;;;;;;5011967;28;20435;-50
2022/08/29 05:27:11;;;;;;;10.15;2.00;;;30.10;99.90;;;;;;5011863;28;20053;-49
2022/08/29 05:29:39;;;;;;;7.00;1.77;;;30.10;99.90;;;;;;5011713;28;20022;-49
2022/08/29 05:32:09;;;;;;;9.10;1.58;;;30.10;99.90;;;;;;5011845;28;20076;-50
2022/08/29 05:34:37;;;;;;;6.95;1.63;;;30.00;99.90;;;;;;5011933;28;20107;-49
2022/08/29 05:37:09;;;;;;;7.22;2.17;;;30.00;99.90;;;;;;5011795;28;20025;-49
2022/08/29 05:39:37;;;;;;;10.60;2.20;;;29.90;99.90;;;;;;5011680;28;20105;-49
2022/08/29 05:42:03;;;;;;;9.68;2.00;;;29.90;99.90;;;;;;5011824;28;20033;-49
2022/08/29 05:44:32;;;;;;;7.20;1.90;;;29.90;99.90;;;;;;5011708;28;20036;-50
2022/08/29 05:46:58;;;;;;;8.05;1.65;;;29.80;99.90;;;;;;5011502;28;20124;-49
2022/08/29 05:49:25;;;;;;;8.07;1.85;;;29.80;99.90;;;;;;5011448;28;20022;-49
2022/08/29 05:51:54;;;;;;;5.47;1.73;;;29.80;99.90;;;;;;5011316;28;20070;-49
2022/08/29 05:54:21;;;;;;;6.22;1.83;;;29.80;99.90;;;;;;5011408;28;20384;-49
2022/08/29 05:56:47;;;;;;;5.20;1.50;;;29.80;99.90;;;;;;5011424;28;20037;-49
2022/08/29 05:59:15;;;;;;;7.13;2.10;;;29.80;99.90;;;;;;5011419;28;20021;-49
2022/08/29 06:01:41;;;;;;;9.63;2.95;;;29.80;99.90;;;;;;5011070;28;20140;-50
2022/08/29 06:04:07;;;;;;;9.30;2.72;;;29.80;99.90;;;;;;5011328;28;20068;-50
2022/08/29 06:06:33;;;;;;;11.15;3.25;;;29.70;99.90;;;;;;5011449;28;20115;-49
2022/08/29 06:09:00;;;;;;;4.32;1.90;;;29.70;99.90;;;;;;5011236;28;20065;-50
2022/08/29 06:11:29;;;;;;;10.02;2.22;;;29.70;99.90;;;;;;5011278;28;20018;-50
2022/08/29 06:13:55;;;;;;;6.82;2.60;;;29.70;99.90;;;;;;5011314;28;20045;-50
2022/08/29 06:16:23;;;;;;;4.75;1.75;;;29.70;99.90;;;;;;4993628;28;20479;-50
2022/08/29 06:18:49;;;;;;;12.77;1.95;;;29.70;99.90;;;;;;5011243;28;20418;-50
2022/08/29 06:21:16;;;;;;;10.13;2.22;;;29.70;99.90;;;;;;5011565;28;20026;-50
2022/08/29 06:23:43;;;;;;;10.30;2.15;;;29.70;99.90;;;;;;5015018;28;20034;-50
2022/08/29 06:26:09;;;;;;;14.15;3.53;;;29.60;99.90;;;;;;5014871;28;20104;-50
2022/08/29 06:28:37;;;;;;;7.55;2.13;;;29.70;99.90;;;;;;5015040;28;20075;-50
2022/08/29 06:31:11;;;;;;;5.80;2.33;;;29.60;99.90;;;;;;5014775;28;20026;-50
2022/08/29 06:33:38;;;;;;;8.10;2.30;;;29.60;99.90;;;;;;5014954;28;20064;-50
2022/08/29 06:36:05;;;;;;;5.82;2.13;;;29.70;99.90;;;;;;5014846;28;20113;-50
2022/08/29 06:38:31;;;;;;;25.88;4.13;;;29.70;99.90;;;;;;5014848;28;20052;-52
2022/08/29 06:41:02;;;;;;;21.35;3.10;;;29.70;99.90;;;;;;5014525;28;20014;-53
2022/08/29 06:43:27;;;;;;;22.42;5.40;;;29.60;99.90;;;;;;5014680;28;20068;-53
2022/08/29 06:45:53;;;;;;;26.77;5.93;;;29.60;99.90;;;;;;5014560;28;20057;-53
2022/08/29 06:48:19;;;;;;;34.40;4.60;;;29.50;99.90;;;;;;5014612;28;20034;-52
2022/08/29 06:50:45;;;;;;;24.73;4.47;;;29.50;99.90;;;;;;5014447;28;20034;-52
2022/08/29 06:53:10;;;;;;;15.90;4.03;;;29.40;99.90;;;;;;5014451;28;20084;-52
2022/08/29 06:55:37;;;;;;;17.60;3.80;;;29.30;99.90;;;;;;5018382;28;20032;-52
2022/08/29 06:58:03;;;;;;;13.27;3.85;;;29.20;99.90;;;;;;5029634;28;20017;-52
2022/08/29 07:00:29;;;;;;;9.80;3.17;;;29.10;99.90;;;;;;5033430;28;20593;-51
2022/08/29 07:02:55;;;;;;;11.85;3.22;;;29.10;99.90;;;;;;5027509;28;20137;-51
2022/08/29 07:05:22;;;;;;;21.50;4.55;;;29.10;99.90;;;;;;5030158;28;20116;-51
2022/08/29 07:07:48;;;;;;;15.50;3.53;;;29.00;99.90;;;;;;5033535;28;20032;-51
2022/08/29 07:10:14;;;;;;;13.93;3.67;;;29.00;99.90;;;;;;5033689;28;20409;-52
2022/08/29 07:12:40;;;;;;;11.13;3.25;;;28.90;99.90;;;;;;5033939;28;20026;-51
2022/08/29 07:15:07;;;;;;;14.52;3.40;;;28.80;99.90;;;;;;5033897;28;20022;-49
2022/08/29 07:17:33;;;;;;;12.55;3.15;;;28.80;99.90;;;;;;5030239;28;20036;-49
2022/08/29 07:19:58;;;;;;;8.88;2.60;;;28.70;99.90;;;;;;5030040;28;20029;-50
2022/08/29 07:22:25;;;;;;;7.68;3.17;;;28.70;99.90;;;;;;5029682;28;20443;-50
2022/08/29 07:24:51;;;;;;;9.23;3.22;;;28.70;99.90;;;;;;5032366;28;20044;-49
2022/08/29 07:27:17;;;;;;;8.10;3.08;;;28.80;99.90;;;;;;5025863;28;20149;-49
2022/08/29 07:29:43;;;;;;;11.88;2.97;;;28.70;99.90;;;;;;5028094;28;20112;-50
2022/08/29 07:32:09;;;;;;;8.05;3.30;;;28.70;99.90;;;;;;5028613;28;20120;-49
2022/08/29 07:34:35;;;;;;;12.15;2.88;;;28.60;99.90;;;;;;5027239;28;20021;-49
2022/08/29 07:37:03;;;;;;;14.15;3.08;;;28.70;99.90;;;;;;5031391;28;20033;-49
2022/08/29 07:39:30;;;;;;;16.20;4.22;;;28.60;99.90;;;;;;5015089;28;20028;-50
2022/08/29 07:41:57;;;;;;;18.15;3.78;;;28.70;99.90;;;;;;5026708;28;20040;-49
2022/08/29 07:44:23;;;;;;;15.27;3.28;;;28.60;99.90;;;;;;5032732;28;20014;-50
2022/08/29 07:46:54;;;;;;;25.92;4.25;;;28.60;99.90;;;;;;5032772;28;20022;-50
2022/08/29 07:49:20;;;;;;;16.88;4.05;;;28.60;99.90;;;;;;5028392;28;20130;-49
2022/08/29 07:51:45;;;;;;;23.67;4.65;;;28.50;99.90;;;;;;5027615;28;20513;-49
2022/08/29 07:54:15;;;;;;;11.70;3.78;;;28.50;99.90;;;;;;5027926;28;20039;-48
2022/08/29 07:56:41;;;;;;;13.32;3.47;;;28.50;99.90;;;;;;5030743;28;20025;-50
2022/08/29 07:59:08;;;;;;;14.77;3.97;;;28.50;99.90;;;;;;5032302;28;20017;-49
2022/08/29 08:01:34;;;;;;;11.60;3.67;;;28.40;99.90;;;;;;5032104;28;20163;-50
2022/08/29 08:04:00;;;;;;;12.43;2.92;;;28.40;99.90;;;;;;5032851;28;20109;-51
2022/08/29 08:06:26;;;;;;;12.07;3.13;;;28.40;99.90;;;;;;5015169;28;20104;-51
2022/08/29 08:08:53;;;;;;;11.30;3.47;;;28.40;99.90;;;;;;5030283;28;20281;-50
2022/08/29 08:11:21;;;;;;;13.35;3.58;;;28.30;99.90;;;;;;5027935;28;20057;-50
2022/08/29 08:13:47;;;;;;;10.13;2.60;;;28.30;99.90;;;;;;5029582;28;20112;-49
2022/08/29 08:16:19;;;;;;;12.35;6.38;;;28.30;99.90;;;;;;5033075;28;20109;-49
2022/08/29 08:18:45;;;;;;;20.00;7.95;;;28.30;99.90;;;;;;5032852;28;20041;-49
2022/08/29 08:21:12;;;;;;;18.83;5.70;;;28.30;99.90;;;;;;5030369;28;20066;-48
2022/08/29 08:23:38;;;;;;;13.85;5.00;;;28.30;99.90;;;;;;5027575;28;20026;-48
2022/08/29 08:26:06;;;;;;;42.78;28.75;;;28.40;99.90;;;;;;5029742;28;20389;-47
2022/08/29 08:28:32;;;;;;;12.20;6.25;;;28.40;99.90;;;;;;5034797;28;20128;-48
2022/08/29 08:30:59;;;;;;;11.52;3.92;;;28.40;99.90;;;;;;5042651;28;20544;-48
2022/08/29 08:33:25;;;;;;;13.07;2.97;;;28.40;99.90;;;;;;5036554;28;20013;-49
2022/08/29 08:35:51;;;;;;;12.43;3.97;;;28.40;99.90;;;;;;5028501;28;20030;-49
2022/08/29 08:38:17;;;;;;;16.17;3.38;;;28.30;99.90;;;;;;5028816;28;20091;-50
2022/08/29 08:41:23;;;;;;;10.10;3.43;;;28.20;99.90;;;;;;5029543;28;20017;-48
2022/08/29 08:43:53;;;;;;;20.77;5.80;;;28.20;99.90;;;;;;5030355;28;20282;-48
2022/08/29 08:46:40;;;;;;;7.13;3.13;;;28.30;99.90;;;;;;5031297;28;20035;-48
2022/08/29 08:49:23;;;;;;;11.05;2.75;;;28.30;99.90;;;;;;5029150;28;20452;-49
2022/08/29 08:51:55;;;;;;;12.48;3.45;;;28.30;99.90;;;;;;5029238;28;20033;-49
2022/08/29 08:54:28;;;;;;;8.32;2.92;;;28.40;99.90;;;;;;5031256;28;20036;-50
2022/08/29 08:57:01;;;;;;;14.48;2.72;;;28.40;99.90;;;;;;5026434;28;20037;-49
2022/08/29 08:59:30;;;;;;;12.40;3.35;;;28.40;99.90;;;;;;5033193;28;20540;-48
2022/08/29 09:02:15;;;;;;;11.05;3.65;;;28.40;99.90;;;;;;5030729;28;20377;-49
2022/08/29 09:05:05;;;;;;;8.38;2.42;;;28.50;99.90;;;;;;5032679;28;20025;-49
2022/08/29 09:07:48;;;;;;;9.15;4.03;;;28.40;99.90;;;;;;5028758;28;20033;-48
2022/08/29 09:10:39;;;;;;;8.45;2.90;;;28.40;99.90;;;;;;5025957;28;20032;-49
2022/08/29 09:13:30;;;;;;;10.02;3.03;;;28.40;99.90;;;;;;5030953;28;20122;-49
2022/08/29 09:16:00;;;;;;;13.35;3.13;;;28.50;99.90;;;;;;5029530;28;20477;-49
2022/08/29 09:18:35;;;;;;;14.23;2.83;;;28.50;99.90;;;;;;5031283;28;20056;-49
2022/08/29 09:21:03;;;;;;;9.68;2.72;;;28.50;99.90;;;;;;5031462;28;20100;-49
2022/08/29 09:23:38;;;;;;;8.98;3.13;;;28.60;99.90;;;;;;5031259;28;20055;-49
2022/08/29 09:26:05;;;;;;;11.27;3.30;;;28.60;99.90;;;;;;5031486;28;20022;-49
2022/08/29 09:28:31;;;;;;;10.65;3.35;;;28.60;99.90;;;;;;5031145;28;20484;-49
2022/08/29 09:31:24;;;;;;;8.68;2.35;;;28.60;99.90;;;;;;5031244;28;20033;-49
2022/08/29 09:34:11;;;;;;;8.20;2.80;;;28.60;99.90;;;;;;5031236;28;20521;-49
2022/08/29 09:36:51;;;;;;;7.63;2.53;;;28.70;99.90;;;;;;5031274;28;20385;-49
2022/08/29 09:39:28;;;;;;;10.00;2.90;;;28.70;99.90;;;;;;5031266;28;20018;-49
2022/08/29 09:41:57;;;;;;;8.27;3.00;;;28.80;99.90;;;;;;5031059;28;20045;-49
2022/08/29 09:44:23;;;;;;;10.18;2.78;;;28.90;99.90;;;;;;5030974;28;20132;-49
2022/08/29 09:47:10;;;;;;;10.68;2.53;;;28.90;99.90;;;;;;5031522;28;20501;-49
2022/08/29 09:49:38;;;;;;;;;;;29.00;99.90;;;;;;5031246;28;20119;-49
2022/08/29 09:52:22;;;;;;;10.60;2.63;;;29.00;99.90;;;;;;5031063;28;19901;-49
2022/08/29 09:54:48;;;;;;;10.27;2.72;;;29.10;99.90;;;;;;5031154;28;20017;-49
2022/08/29 09:57:17;;;;;;;9.82;3.17;;;29.20;99.90;;;;;;5030236;28;20026;-49
2022/08/29 09:59:46;;;;;;;10.95;3.85;;;29.20;99.90;;;;;;5030803;28;20037;-49
2022/08/29 10:02:26;;;;;;;16.23;4.03;;;29.30;99.90;;;;;;5030724;28;20043;-50
2022/08/29 10:05:00;;;;;;;9.40;3.95;;;29.30;99.90;;;;;;5030664;28;20052;-49
2022/08/29 10:07:29;;;;;;;10.93;3.30;;;29.30;99.90;;;;;;5013238;28;20069;-49
2022/08/29 10:10:23;;;;;;;12.30;3.55;;;29.30;99.90;;;;;;5030888;28;20029;-49
2022/08/29 10:12:53;;;;;;;11.80;2.53;;;29.30;99.90;;;;;;5020307;28;20045;-50
2022/08/29 10:15:43;;;;;;;10.18;2.30;;;29.40;99.90;;;;;;5030957;28;20025;-49
2022/08/29 10:18:33;;;;;;;7.65;2.72;;;29.40;99.90;;;;;;5030712;28;20018;-48
2022/08/29 10:21:11;;;;;;;15.65;3.38;;;29.50;99.90;;;;;;5030500;28;20091;-49
2022/08/29 10:23:57;;;;;;;15.90;3.75;;;29.50;99.90;;;;;;5030523;28;20476;-49
2022/08/29 10:27:04;;;;;;;11.52;3.45;;;29.50;99.90;;;;;;5030813;28;20087;-49
2022/08/29 10:30:06;;;;;;;13.63;4.10;;;29.50;99.90;;;;;;5030182;28;20049;-49
2022/08/29 10:32:55;;;;;;;14.75;4.13;;;29.50;99.90;;;;;;5024155;28;20038;-49
2022/08/29 10:35:25;;;;;;;8.07;3.47;;;29.40;99.90;;;;;;4980570;28;20037;-50
2022/08/29 10:38:13;;;;;;;12.32;4.95;;;29.30;99.90;;;;;;5030911;28;20021;-49
2022/08/29 10:40:54;;;;;;;14.57;4.80;;;29.20;99.90;;;;;;5030471;28;20030;-50
2022/08/29 10:43:46;;;;;;;12.60;3.70;;;29.20;99.90;;;;;;5030661;28;20038;-48
2022/08/29 10:46:31;;;;;;;8.38;2.80;;;29.10;99.90;;;;;;5030441;28;20018;-49
2022/08/29 10:49:07;;;;;;;11.32;3.67;;;29.10;99.90;;;;;;5030565;28;20105;-49
2022/08/29 10:51:46;;;;;;;13.55;3.50;;;29.10;99.90;;;;;;5030400;28;20032;-49
2022/08/29 10:54:28;;;;;;;12.93;3.55;;;29.00;99.90;;;;;;5030350;28;20385;-49
2022/08/29 10:56:54;;;;;;;9.90;3.65;;;28.90;99.90;;;;;;5030582;28;20025;-49
2022/08/29 10:59:41;;;;;;;14.35;3.35;;;28.90;99.90;;;;;;5029467;28;20064;-49
2022/08/29 11:02:22;;;;;;;13.30;3.92;;;28.90;99.90;;;;;;5012634;28;20041;-49
2022/08/29 11:04:55;;;;;;;12.88;3.00;;;28.90;99.90;;;;;;5030483;28;20056;-49
2022/08/29 11:07:35;;;;;;;12.98;2.67;;;29.00;99.90;;;;;;5031102;28;20037;-48
2022/08/29 11:10:16;;;;;;;8.85;3.58;;;29.00;99.90;;;;;;5033961;28;20117;-49
2022/08/29 11:12:57;;;;;;;9.85;3.20;;;29.10;99.90;;;;;;5033923;28;20117;-49
2022/08/29 11:15:41;;;;;;;11.73;3.65;;;29.20;99.90;;;;;;5033948;28;20359;-48
2022/08/29 11:18:39;;;;;;;20.38;4.32;;;29.20;99.90;;;;;;5033756;28;20021;-48
2022/08/29 11:21:26;;;;;;;14.65;2.88;;;29.30;99.90;;;;;;5033447;28;20024;-49
2022/08/29 11:23:51;;;;;;;10.90;4.60;;;29.30;99.90;;;;;;5033806;28;20038;-48
2022/08/29 11:26:32;;;;;;;11.18;3.25;;;29.30;99.90;;;;;;5026231;28;20363;-48
2022/08/29 11:29:46;;;;;;;11.63;6.00;;;29.40;99.90;;;;;;5032184;28;20026;-48
2022/08/29 11:32:31;;;;;;;8.25;2.80;;;29.40;99.90;;;;;;5024864;28;20057;-48
2022/08/29 11:35:06;;;;;;;6.82;3.05;;;29.50;99.90;;;;;;5033336;28;20034;-49
2022/08/29 11:37:32;;;;;;;10.85;3.13;;;29.40;99.90;;;;;;5033518;28;20053;-49
2022/08/29 11:40:36;;;;;;;9.65;2.70;;;29.40;99.90;;;;;;5033000;28;20521;-48
2022/08/29 11:43:04;;;;;;;15.32;4.50;;;29.50;99.90;;;;;;4990968;28;20050;-49
2022/08/29 11:45:38;;;;;;;11.20;3.38;;;29.50;99.90;;;;;;5029323;28;20121;-51
2022/08/29 11:48:19;;;;;;;14.73;3.55;;;29.50;99.90;;;;;;5024180;28;20029;-49
2022/08/29 11:50:45;;;;;;;11.32;3.10;;;29.60;99.90;;;;;;5026515;28;20017;-50
2022/08/29 11:53:21;;;;;;;9.88;3.15;;;29.70;99.90;;;;;;5026071;28;20026;-49
2022/08/29 11:56:11;;;;;;;14.73;4.45;;;29.70;99.90;;;;;;5020931;28;20017;-49
2022/08/29 11:58:41;;;;;;;10.30;3.35;;;29.70;99.90;;;;;;5029618;28;20112;-50
2022/08/29 12:01:37;;;;;;;10.43;3.42;;;29.80;99.90;;;;;;5032430;28;20517;-48
2022/08/29 12:04:10;;;;;;;9.47;2.80;;;29.70;99.90;;;;;;5012490;28;20102;-49
2022/08/29 12:06:48;;;;;;;11.60;3.55;;;29.70;99.90;;;;;;5019871;28;20124;-49
2022/08/29 12:09:41;;;;;;;13.15;3.65;;;29.70;99.90;;;;;;5014790;28;20087;-49
2022/08/29 12:12:14;;;;;;;13.52;3.60;;;29.90;99.90;;;;;;5032922;28;20116;-49
2022/08/29 12:14:49;;;;;;;11.55;4.40;;;29.90;99.90;;;;;;5032770;28;20029;-51
2022/08/29 12:17:23;;;;;;;11.68;3.38;;;29.90;99.90;;;;;;5032224;28;20025;-47
2022/08/29 12:19:55;;;;;;;11.90;3.67;;;30.00;99.90;;;;;;5012016;28;20465;-48
2022/08/29 12:22:42;;;;;;;15.73;3.88;;;30.00;99.90;;;;;;5031805;28;20125;-49
2022/08/29 12:25:26;;;;;;;12.25;4.03;;;30.00;99.90;;;;;;5031956;28;20053;-49
2022/08/29 12:27:59;;;;;;;12.35;3.25;;;30.00;99.90;;;;;;5032468;28;20481;-50
2022/08/29 12:30:27;;;;;;;14.55;3.28;;;30.10;99.90;;;;;;5025759;28;20036;-48
2022/08/29 12:33:06;;;;;;;;;;;30.10;99.90;;;;;;5023204;28;20036;-50
2022/08/29 12:35:59;;;;;;;9.00;2.67;;;30.10;99.90;;;;;;5032002;28;20353;-49
2022/08/29 12:38:50;;;;;;;8.85;2.83;;;30.20;99.90;;;;;;5032281;28;20489;-50
2022/08/29 12:41:47;;;;;;;7.78;3.13;;;30.20;99.90;;;;;;5032048;28;20592;-49
2022/08/29 12:44:18;;;;;;;11.52;3.40;;;30.20;99.90;;;;;;5031888;28;20047;-54
2022/08/29 12:46:49;;;;;;;11.80;4.05;;;30.20;99.90;;;;;;5025777;28;20478;-49
2022/08/29 12:49:41;;;;;;;10.45;3.40;;;30.30;99.90;;;;;;5031893;28;20038;-49
2022/08/29 12:52:32;;;;;;;10.38;2.65;;;30.30;99.90;;;;;;5015533;28;20485;-48
2022/08/29 12:55:16;;;;;;;8.27;2.90;;;30.30;99.90;;;;;;5026826;28;20547;-49
2022/08/29 12:57:44;;;;;;;8.55;2.65;;;30.30;99.90;;;;;;5028002;28;20033;-48
2022/08/29 13:00:20;;;;;;;7.95;2.90;;;30.30;99.90;;;;;;5031205;28;20052;-47
2022/08/29 13:03:05;;;;;;;13.30;3.08;;;30.30;99.90;;;;;;5025071;28;20084;-49
2022/08/29 13:05:33;;;;;;;9.07;3.70;;;30.30;99.90;;;;;;5028587;28;20033;-49
2022/08/29 13:08:09;;;;;;;9.02;3.30;;;30.30;99.90;;;;;;5030995;28;20482;-48